sensor_id;sensor_type;location;lat;lon;timestamp;pressure;altitude;pressure_sealevel;temperature;humidity
9077;BME280;4574;51.072;17.174;2022-10-17T00:01:15;101000.06;;;15.71;100.00
9077;BME280;4574;51.072;17.174;2022-10-17T00:03:46;100996.91;;;15.67;100.00
9077;BME280;4574;51.072;17.174;2022-10-17T00:06:15;101004.22;;;15.65;100.00
9077;BME280;4574;51.072;17.174;2022-10-17T00:08:43;100995.00;;;15.60;100.00
9077;BME280;4574;51.072;17.174;2022-10-17T00:11:15;101000.50;;;15.50;100.00
9077;BME280;4574;51.072;17.174;2022-10-17T00:13:44;100990.75;;;15.41;100.00
9077;BME280;4574;51.072;17.174;2022-10-17T00:16:13;101005.41;;;15.37;100.00
9077;BME280;4574;51.072;17.174;2022-10-17T00:18:41;101000.19;;;15.28;100.00
9077;BME280;4574;51.072;17.174;2022-10-17T00:21:16;100996.81;;;15.26;100.00
9077;BME280;4574;51.072;17.174;2022-10-17T00:23:46;100992.91;;;15.20;100.00
9077;BME280;4574;51.072;17.174;2022-10-17T00:26:16;101001.53;;;15.14;100.00
9077;BME280;4574;51.072;17.174;2022-10-17T00:28:45;101000.66;;;15.06;100.00
9077;BME280;4574;51.072;17.174;2022-10-17T00:31:16;101005.69;;;15.09;100.00
9077;BME280;4574;51.072;17.174;2022-10-17T00:33:45;101007.13;;;15.03;100.00
9077;BME280;4574;51.072;17.174;2022-10-17T00:36:17;101003.16;;;15.07;100.00
9077;BME280;4574;51.072;17.174;2022-10-17T00:38:48;101008.81;;;15.04;100.00
9077;BME280;4574;51.072;17.174;2022-10-17T00:41:19;101004.78;;;15.00;100.00
9077;BME280;4574;51.072;17.174;2022-10-17T00:43:53;101000.44;;;14.99;100.00
9077;BME280;4574;51.072;17.174;2022-10-17T00:46:25;101003.09;;;14.99;100.00
9077;BME280;4574;51.072;17.174;2022-10-17T00:48:55;101006.63;;;15.00;100.00
9077;BME280;4574;51.072;17.174;2022-10-17T00:51:29;100991.72;;;14.89;100.00
9077;BME280;4574;51.072;17.174;2022-10-17T00:54:01;101008.06;;;14.94;100.00
9077;BME280;4574;51.072;17.174;2022-10-17T00:56:30;101013.41;;;14.94;100.00
9077;BME280;4574;51.072;17.174;2022-10-17T00:59:00;101020.72;;;14.92;100.00
9077;BME280;4574;51.072;17.174;2022-10-17T01:01:29;101026.06;;;14.92;100.00
9077;BME280;4574;51.072;17.174;2022-10-17T01:03:59;101028.88;;;14.91;100.00
9077;BME280;4574;51.072;17.174;2022-10-17T01:06:29;101021.03;;;14.89;100.00
9077;BME280;4574;51.072;17.174;2022-10-17T01:08:58;101014.19;;;14.87;100.00
9077;BME280;4574;51.072;17.174;2022-10-17T01:11:32;101018.00;;;14.84;100.00
9077;BME280;4574;51.072;17.174;2022-10-17T01:14:07;101024.31;;;14.83;100.00
9077;BME280;4574;51.072;17.174;2022-10-17T01:16:43;101018.63;;;14.78;100.00
9077;BME280;4574;51.072;17.174;2022-10-17T01:19:36;101014.91;;;14.54;100.00
9077;BME280;4574;51.072;17.174;2022-10-17T01:22:14;101012.94;;;14.56;100.00
9077;BME280;4574;51.072;17.174;2022-10-17T01:25:04;100999.00;;;14.45;100.00
9077;BME280;4574;51.072;17.174;2022-10-17T01:27:58;101007.22;;;14.34;100.00
9077;BME280;4574;51.072;17.174;2022-10-17T01:30:52;101009.41;;;14.11;100.00
9077;BME280;4574;51.072;17.174;2022-10-17T01:33:30;101003.41;;;14.19;100.00
9077;BME280;4574;51.072;17.174;2022-10-17T01:36:06;101004.59;;;14.24;100.00
9077;BME280;4574;51.072;17.174;2022-10-17T01:38:44;101009.50;;;14.29;100.00
9077;BME280;4574;51.072;17.174;2022-10-17T01:41:22;101013.97;;;14.28;100.00
9077;BME280;4574;51.072;17.174;2022-10-17T01:43:56;101020.97;;;14.29;100.00
9077;BME280;4574;51.072;17.174;2022-10-17T01:46:31;101019.84;;;14.32;100.00
9077;BME280;4574;51.072;17.174;2022-10-17T01:49:05;101019.84;;;14.32;100.00
9077;BME280;4574;51.072;17.174;2022-10-17T01:51:37;101021.50;;;14.33;100.00
9077;BME280;4574;51.072;17.174;2022-10-17T01:54:10;101018.16;;;14.31;100.00
9077;BME280;4574;51.072;17.174;2022-10-17T01:56:41;101024.09;;;14.25;100.00
9077;BME280;4574;51.072;17.174;2022-10-17T01:59:14;101017.09;;;13.97;100.00
9077;BME280;4574;51.072;17.174;2022-10-17T02:01:48;101016.75;;;13.82;100.00
9077;BME280;4574;51.072;17.174;2022-10-17T02:04:19;100999.56;;;13.77;100.00
9077;BME280;4574;51.072;17.174;2022-10-17T02:06:48;101013.09;;;13.83;100.00
9077;BME280;4574;51.072;17.174;2022-10-17T02:09:19;101007.06;;;13.81;100.00
9077;BME280;4574;51.072;17.174;2022-10-17T02:12:13;100999.47;;;13.69;100.00
9077;BME280;4574;51.072;17.174;2022-10-17T02:15:00;101003.09;;;13.68;100.00
9077;BME280;4574;51.072;17.174;2022-10-17T02:17:43;100998.38;;;13.62;100.00
9077;BME280;4574;51.072;17.174;2022-10-17T02:20:19;101005.63;;;13.60;100.00
9077;BME280;4574;51.072;17.174;2022-10-17T02:22:53;100998.94;;;13.56;100.00
9077;BME280;4574;51.072;17.174;2022-10-17T02:25:33;100993.59;;;13.56;100.00
9077;BME280;4574;51.072;17.174;2022-10-17T02:28:10;100994.28;;;13.58;100.00
9077;BME280;4574;51.072;17.174;2022-10-17T02:30:47;100996.97;;;13.58;100.00
9077;BME280;4574;51.072;17.174;2022-10-17T02:33:22;100986.22;;;13.50;100.00
9077;BME280;4574;51.072;17.174;2022-10-17T02:35:57;100992.81;;;13.46;100.00
9077;BME280;4574;51.072;17.174;2022-10-17T02:38:28;100997.84;;;13.49;100.00
9077;BME280;4574;51.072;17.174;2022-10-17T02:40:58;100996.16;;;13.48;100.00
9077;BME280;4574;51.072;17.174;2022-10-17T02:43:27;101023.31;;;13.61;100.00
9077;BME280;4574;51.072;17.174;2022-10-17T02:45:56;101021.34;;;13.63;100.00
9077;BME280;4574;51.072;17.174;2022-10-17T02:48:33;101017.53;;;13.65;100.00
9077;BME280;4574;51.072;17.174;2022-10-17T02:51:07;101033.59;;;13.73;100.00
9077;BME280;4574;51.072;17.174;2022-10-17T02:53:43;101038.31;;;13.79;100.00
9077;BME280;4574;51.072;17.174;2022-10-17T02:56:17;101026.31;;;13.75;100.00
9077;BME280;4574;51.072;17.174;2022-10-17T02:58:49;101035.25;;;13.84;100.00
9077;BME280;4574;51.072;17.174;2022-10-17T03:01:19;101033.56;;;13.83;100.00
9077;BME280;4574;51.072;17.174;2022-10-17T03:03:50;101037.91;;;13.84;100.00
9077;BME280;4574;51.072;17.174;2022-10-17T03:06:19;101047.47;;;13.77;100.00
9077;BME280;4574;51.072;17.174;2022-10-17T03:08:47;101050.13;;;13.77;100.00
9077;BME280;4574;51.072;17.174;2022-10-17T03:11:17;101056.44;;;13.76;100.00
9077;BME280;4574;51.072;17.174;2022-10-17T03:13:45;101045.09;;;13.74;100.00
9077;BME280;4574;51.072;17.174;2022-10-17T03:16:13;101041.56;;;13.73;100.00
9077;BME280;4574;51.072;17.174;2022-10-17T03:18:42;101048.94;;;13.62;100.00
9077;BME280;4574;51.072;17.174;2022-10-17T03:21:17;101056.31;;;13.68;100.00
9077;BME280;4574;51.072;17.174;2022-10-17T03:23:45;101062.16;;;13.71;100.00
9077;BME280;4574;51.072;17.174;2022-10-17T03:26:14;101057.69;;;13.72;100.00
9077;BME280;4574;51.072;17.174;2022-10-17T03:28:42;101065.97;;;13.69;100.00
9077;BME280;4574;51.072;17.174;2022-10-17T03:31:14;101067.78;;;13.68;100.00
9077;BME280;4574;51.072;17.174;2022-10-17T03:33:43;101057.88;;;13.61;100.00
9077;BME280;4574;51.072;17.174;2022-10-17T03:36:14;101048.97;;;13.43;100.00
9077;BME280;4574;51.072;17.174;2022-10-17T03:38:46;101048.59;;;13.19;100.00
9077;BME280;4574;51.072;17.174;2022-10-17T03:41:15;101054.94;;;13.09;100.00
9077;BME280;4574;51.072;17.174;2022-10-17T03:43:43;101057.84;;;13.15;100.00
9077;BME280;4574;51.072;17.174;2022-10-17T03:46:12;101061.91;;;13.19;100.00
9077;BME280;4574;51.072;17.174;2022-10-17T03:48:40;101052.25;;;13.18;100.00
9077;BME280;4574;51.072;17.174;2022-10-17T03:51:09;101061.78;;;13.11;100.00
9077;BME280;4574;51.072;17.174;2022-10-17T03:53:38;101059.53;;;13.16;100.00
9077;BME280;4574;51.072;17.174;2022-10-17T03:56:13;101049.22;;;13.04;100.00
9077;BME280;4574;51.072;17.174;2022-10-17T03:58:42;101057.03;;;13.05;100.00
9077;BME280;4574;51.072;17.174;2022-10-17T04:01:12;101070.44;;;13.13;100.00
9077;BME280;4574;51.072;17.174;2022-10-17T04:03:42;101070.56;;;13.21;100.00
9077;BME280;4574;51.072;17.174;2022-10-17T04:06:11;101063.28;;;13.23;100.00
9077;BME280;4574;51.072;17.174;2022-10-17T04:08:40;101068.47;;;13.15;100.00
9077;BME280;4574;51.072;17.174;2022-10-17T04:11:13;101073.50;;;13.28;100.00
9077;BME280;4574;51.072;17.174;2022-10-17T04:13:45;101061.03;;;13.28;100.00
9077;BME280;4574;51.072;17.174;2022-10-17T04:16:17;101075.59;;;13.34;100.00
9077;BME280;4574;51.072;17.174;2022-10-17T04:18:45;101077.00;;;13.38;100.00
9077;BME280;4574;51.072;17.174;2022-10-17T04:21:14;101074.16;;;13.39;100.00
9077;BME280;4574;51.072;17.174;2022-10-17T04:23:44;101075.72;;;13.41;100.00
9077;BME280;4574;51.072;17.174;2022-10-17T04:26:14;101079.47;;;13.39;100.00
9077;BME280;4574;51.072;17.174;2022-10-17T04:28:42;101073.06;;;13.32;100.00
9077;BME280;4574;51.072;17.174;2022-10-17T04:31:13;101074.34;;;13.28;100.00
9077;BME280;4574;51.072;17.174;2022-10-17T04:33:41;101080.78;;;13.26;100.00
9077;BME280;4574;51.072;17.174;2022-10-17T04:36:12;101086.94;;;13.26;100.00
9077;BME280;4574;51.072;17.174;2022-10-17T04:38:41;101082.75;;;13.14;100.00
9077;BME280;4574;51.072;17.174;2022-10-17T04:41:11;101077.59;;;13.03;100.00
9077;BME280;4574;51.072;17.174;2022-10-17T04:43:42;101075.63;;;13.05;100.00
9077;BME280;4574;51.072;17.174;2022-10-17T04:46:17;101075.22;;;13.00;100.00
9077;BME280;4574;51.072;17.174;2022-10-17T04:48:45;101078.31;;;12.96;100.00
9077;BME280;4574;51.072;17.174;2022-10-17T04:51:15;101068.38;;;12.98;100.00
9077;BME280;4574;51.072;17.174;2022-10-17T04:53:49;101077.75;;;13.02;100.00
9077;BME280;4574;51.072;17.174;2022-10-17T04:56:19;101076.50;;;13.06;100.00
9077;BME280;4574;51.072;17.174;2022-10-17T04:58:50;101085.28;;;13.06;100.00
9077;BME280;4574;51.072;17.174;2022-10-17T05:01:20;101080.41;;;13.02;100.00
9077;BME280;4574;51.072;17.174;2022-10-17T05:03:50;101083.59;;;13.05;100.00
9077;BME280;4574;51.072;17.174;2022-10-17T05:06:20;101084.31;;;12.98;100.00
9077;BME280;4574;51.072;17.174;2022-10-17T05:08:49;101080.00;;;12.97;100.00
9077;BME280;4574;51.072;17.174;2022-10-17T05:11:19;101074.09;;;12.93;100.00
9077;BME280;4574;51.072;17.174;2022-10-17T05:13:54;101073.53;;;12.99;100.00
9077;BME280;4574;51.072;17.174;2022-10-17T05:16:24;101069.31;;;12.87;100.00
9077;BME280;4574;51.072;17.174;2022-10-17T05:18:54;101087.81;;;12.98;100.00
9077;BME280;4574;51.072;17.174;2022-10-17T05:21:25;101086.97;;;12.98;100.00
9077;BME280;4574;51.072;17.174;2022-10-17T05:23:54;101093.56;;;12.94;100.00
9077;BME280;4574;51.072;17.174;2022-10-17T05:26:23;101086.56;;;12.93;100.00
9077;BME280;4574;51.072;17.174;2022-10-17T05:28:53;101088.09;;;12.95;100.00
9077;BME280;4574;51.072;17.174;2022-10-17T05:31:22;101097.31;;;12.91;100.00
9077;BME280;4574;51.072;17.174;2022-10-17T05:33:50;101103.22;;;12.95;100.00
9077;BME280;4574;51.072;17.174;2022-10-17T05:36:19;101104.72;;;12.97;100.00
9077;BME280;4574;51.072;17.174;2022-10-17T05:38:49;101113.97;;;13.03;100.00
9077;BME280;4574;51.072;17.174;2022-10-17T05:41:18;101113.97;;;13.03;100.00
9077;BME280;4574;51.072;17.174;2022-10-17T05:43:47;101117.47;;;13.03;100.00
9077;BME280;4574;51.072;17.174;2022-10-17T05:46:17;101127.56;;;13.00;100.00
9077;BME280;4574;51.072;17.174;2022-10-17T05:48:46;101122.78;;;13.03;100.00
9077;BME280;4574;51.072;17.174;2022-10-17T05:51:15;101127.81;;;13.06;100.00
9077;BME280;4574;51.072;17.174;2022-10-17T05:53:43;101138.59;;;13.14;100.00
9077;BME280;4574;51.072;17.174;2022-10-17T05:56:12;101143.63;;;13.17;100.00
9077;BME280;4574;51.072;17.174;2022-10-17T05:58:42;101149.63;;;13.19;100.00
9077;BME280;4574;51.072;17.174;2022-10-17T06:01:18;101157.50;;;13.21;100.00
9077;BME280;4574;51.072;17.174;2022-10-17T06:03:47;101146.28;;;13.27;100.00
9077;BME280;4574;51.072;17.174;2022-10-17T06:06:16;101142.78;;;13.26;100.00
9077;BME280;4574;51.072;17.174;2022-10-17T06:08:45;101144.31;;;13.29;100.00
9077;BME280;4574;51.072;17.174;2022-10-17T06:11:14;101152.72;;;13.24;100.00
9077;BME280;4574;51.072;17.174;2022-10-17T06:13:43;101149.34;;;13.22;100.00
9077;BME280;4574;51.072;17.174;2022-10-17T06:16:12;101150.91;;;13.25;100.00
9077;BME280;4574;51.072;17.174;2022-10-17T06:18:42;101154.41;;;13.25;100.00
9077;BME280;4574;51.072;17.174;2022-10-17T06:21:14;101137.31;;;13.18;100.00
9077;BME280;4574;51.072;17.174;2022-10-17T06:23:44;101160.13;;;13.30;100.00
9077;BME280;4574;51.072;17.174;2022-10-17T06:26:13;101162.22;;;13.36;100.00
9077;BME280;4574;51.072;17.174;2022-10-17T06:28:41;101160.97;;;13.40;100.00
9077;BME280;4574;51.072;17.174;2022-10-17T06:31:12;101164.72;;;13.47;100.00
9077;BME280;4574;51.072;17.174;2022-10-17T06:33:43;101158.59;;;13.46;100.00
9077;BME280;4574;51.072;17.174;2022-10-17T06:36:13;101176.88;;;13.59;100.00
9077;BME280;4574;51.072;17.174;2022-10-17T06:38:42;101175.38;;;13.66;100.00
9077;BME280;4574;51.072;17.174;2022-10-17T06:41:12;101175.78;;;13.71;100.00
9077;BME280;4574;51.072;17.174;2022-10-17T06:43:42;101182.91;;;13.80;100.00
9077;BME280;4574;51.072;17.174;2022-10-17T06:46:13;101173.34;;;13.87;100.00
9077;BME280;4574;51.072;17.174;2022-10-17T06:48:44;101169.81;;;13.96;100.00
9077;BME280;4574;51.072;17.174;2022-10-17T06:51:13;101170.91;;;14.03;100.00
9077;BME280;4574;51.072;17.174;2022-10-17T06:53:43;101174.69;;;14.10;100.00
9077;BME280;4574;51.072;17.174;2022-10-17T06:56:11;101175.81;;;14.17;100.00
9077;BME280;4574;51.072;17.174;2022-10-17T06:58:40;101181.94;;;14.27;100.00
9077;BME280;4574;51.072;17.174;2022-10-17T07:01:11;101188.06;;;14.37;100.00
9077;BME280;4574;51.072;17.174;2022-10-17T07:03:40;101190.69;;;14.46;100.00
9077;BME280;4574;51.072;17.174;2022-10-17T07:06:11;101186.13;;;14.56;100.00
9077;BME280;4574;51.072;17.174;2022-10-17T07:08:41;101180.34;;;14.61;100.00
9077;BME280;4574;51.072;17.174;2022-10-17T07:11:12;101191.78;;;14.71;100.00
9077;BME280;4574;51.072;17.174;2022-10-17T07:13:41;101186.94;;;14.83;100.00
9077;BME280;4574;51.072;17.174;2022-10-17T07:16:11;101193.03;;;14.93;100.00
9077;BME280;4574;51.072;17.174;2022-10-17T07:18:40;101195.97;;;15.00;100.00
9077;BME280;4574;51.072;17.174;2022-10-17T07:21:10;101194.28;;;15.16;100.00
9077;BME280;4574;51.072;17.174;2022-10-17T07:23:39;101201.94;;;15.29;100.00
9077;BME280;4574;51.072;17.174;2022-10-17T07:26:11;101200.59;;;15.42;100.00
9077;BME280;4574;51.072;17.174;2022-10-17T07:28:42;101200.34;;;15.53;100.00
9077;BME280;4574;51.072;17.174;2022-10-17T07:31:13;101206.78;;;15.68;100.00
9077;BME280;4574;51.072;17.174;2022-10-17T07:33:42;101209.41;;;15.86;100.00
9077;BME280;4574;51.072;17.174;2022-10-17T07:36:13;101209.00;;;15.98;100.00
9077;BME280;4574;51.072;17.174;2022-10-17T07:38:42;101206.47;;;16.22;100.00
9077;BME280;4574;51.072;17.174;2022-10-17T07:41:12;101213.94;;;16.36;100.00
9077;BME280;4574;51.072;17.174;2022-10-17T07:43:47;101203.19;;;16.53;100.00
9077;BME280;4574;51.072;17.174;2022-10-17T07:46:16;101199.72;;;16.69;100.00
9077;BME280;4574;51.072;17.174;2022-10-17T07:48:45;101198.09;;;16.84;100.00
9077;BME280;4574;51.072;17.174;2022-10-17T07:51:15;101206.34;;;16.98;100.00
9077;BME280;4574;51.072;17.174;2022-10-17T07:53:44;101207.03;;;17.16;100.00
9077;BME280;4574;51.072;17.174;2022-10-17T07:56:14;101209.75;;;17.32;100.00
9077;BME280;4574;51.072;17.174;2022-10-17T07:58:43;101212.63;;;17.47;100.00
9077;BME280;4574;51.072;17.174;2022-10-17T08:01:14;101211.63;;;17.55;100.00
9077;BME280;4574;51.072;17.174;2022-10-17T08:03:44;101214.63;;;17.76;100.00
9077;BME280;4574;51.072;17.174;2022-10-17T08:06:16;101215.63;;;17.83;100.00
9077;BME280;4574;51.072;17.174;2022-10-17T08:08:45;101215.47;;;17.93;100.00
9077;BME280;4574;51.072;17.174;2022-10-17T08:11:14;101211.59;;;17.95;100.00
9077;BME280;4574;51.072;17.174;2022-10-17T08:13:42;101217.94;;;18.10;100.00
9077;BME280;4574;51.072;17.174;2022-10-17T08:16:12;101213.22;;;18.20;100.00
9077;BME280;4574;51.072;17.174;2022-10-17T08:18:41;101206.38;;;18.34;100.00
9077;BME280;4574;51.072;17.174;2022-10-17T08:21:10;101215.88;;;18.44;100.00
9077;BME280;4574;51.072;17.174;2022-10-17T08:23:41;101209.13;;;18.56;100.00
9077;BME280;4574;51.072;17.174;2022-10-17T08:26:10;101211.41;;;18.67;100.00
9077;BME280;4574;51.072;17.174;2022-10-17T08:28:42;101214.09;;;18.75;100.00
9077;BME280;4574;51.072;17.174;2022-10-17T08:31:12;101211.47;;;18.89;100.00
9077;BME280;4574;51.072;17.174;2022-10-17T08:33:41;101212.44;;;18.96;100.00
9077;BME280;4574;51.072;17.174;2022-10-17T08:36:12;101208.41;;;19.00;100.00
9077;BME280;4574;51.072;17.174;2022-10-17T08:38:43;101205.00;;;19.06;100.00
9077;BME280;4574;51.072;17.174;2022-10-17T08:41:30;101204.63;;;19.17;100.00
9077;BME280;4574;51.072;17.174;2022-10-17T08:44:13;101208.13;;;19.26;100.00
9077;BME280;4574;51.072;17.174;2022-10-17T08:46:46;101202.03;;;19.32;100.00
9077;BME280;4574;51.072;17.174;2022-10-17T08:49:22;101195.75;;;19.39;100.00
9077;BME280;4574;51.072;17.174;2022-10-17T08:51:57;101203.56;;;19.49;100.00
9077;BME280;4574;51.072;17.174;2022-10-17T08:54:37;101200.97;;;19.55;100.00
9077;BME280;4574;51.072;17.174;2022-10-17T08:57:11;101204.66;;;19.62;100.00
9077;BME280;4574;51.072;17.174;2022-10-17T08:59:41;101206.91;;;19.73;100.00
9077;BME280;4574;51.072;17.174;2022-10-17T09:02:28;101206.53;;;19.76;100.00
9077;BME280;4574;51.072;17.174;2022-10-17T09:05:13;101200.91;;;19.86;100.00
9077;BME280;4574;51.072;17.174;2022-10-17T09:07:59;101209.91;;;19.93;100.00
9077;BME280;4574;51.072;17.174;2022-10-17T09:10:37;101200.13;;;20.00;100.00
9077;BME280;4574;51.072;17.174;2022-10-17T09:13:18;101202.44;;;20.03;100.00
9077;BME280;4574;51.072;17.174;2022-10-17T09:16:01;101193.28;;;20.12;100.00
9077;BME280;4574;51.072;17.174;2022-10-17T09:18:37;101192.91;;;20.15;100.00
9077;BME280;4574;51.072;17.174;2022-10-17T09:21:16;101201.44;;;20.32;100.00
9077;BME280;4574;51.072;17.174;2022-10-17T09:23:49;101197.19;;;20.38;100.00
9077;BME280;4574;51.072;17.174;2022-10-17T09:26:36;101188.63;;;20.34;100.00
9077;BME280;4574;51.072;17.174;2022-10-17T09:29:14;101189.94;;;20.38;100.00
9077;BME280;4574;51.072;17.174;2022-10-17T09:31:48;101196.91;;;20.47;100.00
9077;BME280;4574;51.072;17.174;2022-10-17T09:34:18;101195.78;;;20.56;100.00
9077;BME280;4574;51.072;17.174;2022-10-17T09:36:52;101202.47;;;20.60;100.00
9077;BME280;4574;51.072;17.174;2022-10-17T09:39:22;101197.25;;;20.73;100.00
9077;BME280;4574;51.072;17.174;2022-10-17T09:41:55;101188.53;;;20.71;100.00
9077;BME280;4574;51.072;17.174;2022-10-17T09:44:29;101192.44;;;20.83;100.00
9077;BME280;4574;51.072;17.174;2022-10-17T09:47:08;101193.72;;;20.87;100.00
9077;BME280;4574;51.072;17.174;2022-10-17T09:49:41;101192.59;;;20.96;100.00
9077;BME280;4574;51.072;17.174;2022-10-17T09:52:13;101198.13;;;21.09;99.88
9077;BME280;4574;51.072;17.174;2022-10-17T09:54:44;101188.25;;;21.16;100.00
9077;BME280;4574;51.072;17.174;2022-10-17T09:57:15;101200.75;;;21.24;97.74
9077;BME280;4574;51.072;17.174;2022-10-17T09:59:47;101199.16;;;21.29;99.52
9077;BME280;4574;51.072;17.174;2022-10-17T10:02:24;101190.91;;;21.31;98.49
9077;BME280;4574;51.072;17.174;2022-10-17T10:04:56;101185.81;;;21.42;98.71
9077;BME280;4574;51.072;17.174;2022-10-17T10:07:35;101185.31;;;21.53;98.18
9077;BME280;4574;51.072;17.174;2022-10-17T10:10:06;101190.19;;;21.64;98.75
9077;BME280;4574;51.072;17.174;2022-10-17T10:12:38;101189.03;;;21.73;97.39
9077;BME280;4574;51.072;17.174;2022-10-17T10:15:31;101192.19;;;21.76;97.55
9077;BME280;4574;51.072;17.174;2022-10-17T10:18:01;101193.31;;;21.88;96.73
9077;BME280;4574;51.072;17.174;2022-10-17T10:20:33;101191.69;;;21.94;96.53
9077;BME280;4574;51.072;17.174;2022-10-17T10:23:12;101193.66;;;22.06;96.17
9077;BME280;4574;51.072;17.174;2022-10-17T10:25:53;101190.47;;;22.24;96.36
9077;BME280;4574;51.072;17.174;2022-10-17T10:28:25;101199.72;;;22.36;96.72
9077;BME280;4574;51.072;17.174;2022-10-17T10:30:55;101192.31;;;22.51;93.30
9077;BME280;4574;51.072;17.174;2022-10-17T10:33:27;101194.41;;;22.55;93.61
9077;BME280;4574;51.072;17.174;2022-10-17T10:35:58;101194.28;;;22.70;95.01
9077;BME280;4574;51.072;17.174;2022-10-17T10:38:28;101190.78;;;22.82;93.43
9077;BME280;4574;51.072;17.174;2022-10-17T10:41:01;101189.38;;;22.93;92.54
9077;BME280;4574;51.072;17.174;2022-10-17T10:43:36;101188.13;;;22.95;91.40
9077;BME280;4574;51.072;17.174;2022-10-17T10:46:16;101189.41;;;23.06;90.30
9077;BME280;4574;51.072;17.174;2022-10-17T10:48:53;101195.06;;;23.11;91.17
9077;BME280;4574;51.072;17.174;2022-10-17T10:51:28;101193.84;;;23.19;90.67
9077;BME280;4574;51.072;17.174;2022-10-17T10:54:02;101189.50;;;23.31;90.72
9077;BME280;4574;51.072;17.174;2022-10-17T10:56:35;101185.78;;;23.45;90.24
9077;BME280;4574;51.072;17.174;2022-10-17T10:59:12;101187.44;;;23.46;88.50
9077;BME280;4574;51.072;17.174;2022-10-17T11:01:49;101179.34;;;23.59;89.03
9077;BME280;4574;51.072;17.174;2022-10-17T11:04:26;101187.88;;;23.69;88.22
9077;BME280;4574;51.072;17.174;2022-10-17T11:07:00;101186.00;;;23.76;87.53
9077;BME280;4574;51.072;17.174;2022-10-17T11:09:39;101191.41;;;23.76;86.90
9077;BME280;4574;51.072;17.174;2022-10-17T11:12:17;101181.88;;;23.80;87.37
9077;BME280;4574;51.072;17.174;2022-10-17T11:14:53;101181.47;;;23.83;88.89
9077;BME280;4574;51.072;17.174;2022-10-17T11:17:31;101170.66;;;23.83;89.36
9077;BME280;4574;51.072;17.174;2022-10-17T11:20:09;101175.22;;;23.96;87.86
9077;BME280;4574;51.072;17.174;2022-10-17T11:22:43;101166.88;;;24.04;87.42
9077;BME280;4574;51.072;17.174;2022-10-17T11:25:33;101167.31;;;24.07;87.63
9077;BME280;4574;51.072;17.174;2022-10-17T11:28:03;101165.00;;;24.17;88.57
9077;BME280;4574;51.072;17.174;2022-10-17T11:30:45;101162.69;;;24.27;88.10
9077;BME280;4574;51.072;17.174;2022-10-17T11:33:20;101163.50;;;24.28;86.95
9077;BME280;4574;51.072;17.174;2022-10-17T11:35:52;101157.69;;;24.24;86.31
9077;BME280;4574;51.072;17.174;2022-10-17T11:38:35;101150.00;;;24.21;85.56
9077;BME280;4574;51.072;17.174;2022-10-17T11:41:05;101145.16;;;24.30;86.96
9077;BME280;4574;51.072;17.174;2022-10-17T11:43:41;101151.03;;;24.20;84.50
9077;BME280;4574;51.072;17.174;2022-10-17T11:46:17;101159.13;;;24.33;85.92
9077;BME280;4574;51.072;17.174;2022-10-17T11:48:56;101156.22;;;24.28;85.93
9077;BME280;4574;51.072;17.174;2022-10-17T11:51:28;101160.97;;;24.39;86.13
9077;BME280;4574;51.072;17.174;2022-10-17T11:54:22;101155.97;;;24.49;85.77
9077;BME280;4574;51.072;17.174;2022-10-17T11:57:02;101145.94;;;24.56;86.42
9077;BME280;4574;51.072;17.174;2022-10-17T11:59:55;101130.47;;;24.69;85.87
9077;BME280;4574;51.072;17.174;2022-10-17T12:02:32;101136.28;;;24.79;83.81
9077;BME280;4574;51.072;17.174;2022-10-17T12:05:14;101133.69;;;24.91;83.63
9077;BME280;4574;51.072;17.174;2022-10-17T12:07:50;101134.88;;;25.01;83.17
9077;BME280;4574;51.072;17.174;2022-10-17T12:10:32;101127.91;;;25.12;82.26
9077;BME280;4574;51.072;17.174;2022-10-17T12:16:36;101126.88;;;25.44;83.55
9077;BME280;4574;51.072;17.174;2022-10-17T12:19:25;101128.34;;;25.46;80.79
9077;BME280;4574;51.072;17.174;2022-10-17T12:21:56;101119.97;;;25.48;82.06
9077;BME280;4574;51.072;17.174;2022-10-17T12:24:41;101123.97;;;25.70;81.14
9077;BME280;4574;51.072;17.174;2022-10-17T12:30:22;101119.66;;;25.87;80.12
9077;BME280;4574;51.072;17.174;2022-10-17T12:33:01;101111.69;;;25.92;79.73
9077;BME280;4574;51.072;17.174;2022-10-17T12:35:36;101114.41;;;25.92;79.26
9077;BME280;4574;51.072;17.174;2022-10-17T12:38:19;101112.44;;;25.98;79.04
9077;BME280;4574;51.072;17.174;2022-10-17T12:41:01;101115.53;;;26.02;77.88
9077;BME280;4574;51.072;17.174;2022-10-17T12:43:53;101115.63;;;26.13;78.34
9077;BME280;4574;51.072;17.174;2022-10-17T12:46:54;101121.34;;;26.23;78.84
9077;BME280;4574;51.072;17.174;2022-10-17T12:49:46;101114.50;;;26.39;79.43
9077;BME280;4574;51.072;17.174;2022-10-17T12:52:57;101116.22;;;26.33;79.16
9077;BME280;4574;51.072;17.174;2022-10-17T12:55:29;101113.97;;;26.30;78.54
9077;BME280;4574;51.072;17.174;2022-10-17T12:57:59;101107.72;;;26.48;78.63
9077;BME280;4574;51.072;17.174;2022-10-17T13:00:33;101108.97;;;26.63;79.03
9077;BME280;4574;51.072;17.174;2022-10-17T13:03:08;101113.28;;;26.71;77.62
9077;BME280;4574;51.072;17.174;2022-10-17T13:05:40;101109.25;;;26.73;77.56
9077;BME280;4574;51.072;17.174;2022-10-17T13:08:15;101108.00;;;26.87;78.16
9077;BME280;4574;51.072;17.174;2022-10-17T13:10:47;101114.91;;;27.01;78.85
9077;BME280;4574;51.072;17.174;2022-10-17T13:13:20;101120.72;;;27.05;78.97
9077;BME280;4574;51.072;17.174;2022-10-17T13:15:53;101117.34;;;26.91;79.10
9077;BME280;4574;51.072;17.174;2022-10-17T13:18:24;101112.78;;;27.03;78.05
9077;BME280;4574;51.072;17.174;2022-10-17T13:20:58;101114.28;;;27.17;77.30
9077;BME280;4574;51.072;17.174;2022-10-17T13:23:31;101114.00;;;27.07;75.66
9077;BME280;4574;51.072;17.174;2022-10-17T13:26:05;101107.59;;;27.02;76.95
9077;BME280;4574;51.072;17.174;2022-10-17T13:28:35;101109.34;;;26.96;77.67
9077;BME280;4574;51.072;17.174;2022-10-17T13:31:05;101103.13;;;27.07;77.97